createdAt,value
2023-04-25T00:00:28.411Z,18.90
2023-04-25T00:02:58.241Z,18.90
2023-04-25T00:05:26.924Z,18.90
2023-04-25T00:07:55.441Z,18.90
2023-04-25T00:10:23.718Z,18.90
2023-04-25T00:12:53.226Z,18.90
2023-04-25T00:15:21.623Z,18.90
2023-04-25T00:17:49.782Z,18.90
2023-04-25T00:20:18.100Z,18.90
2023-04-25T00:22:46.389Z,18.90
2023-04-25T00:25:14.506Z,18.80
2023-04-25T00:27:42.893Z,18.90
2023-04-25T00:30:14.097Z,18.90
2023-04-25T00:32:42.203Z,18.90
2023-04-25T00:35:11.357Z,18.90
2023-04-25T00:37:39.575Z,18.80
2023-04-25T00:40:08.956Z,18.80
2023-04-25T00:42:38.799Z,18.80
2023-04-25T00:45:09.366Z,18.80
2023-04-25T00:47:40.026Z,18.80
2023-04-25T00:50:09.681Z,18.80
2023-04-25T00:52:38.426Z,18.70
2023-04-25T00:55:07.445Z,18.80
2023-04-25T00:57:36.289Z,18.80
2023-04-25T01:00:07.546Z,18.70
2023-04-25T01:02:36.681Z,18.70
2023-04-25T01:05:06.897Z,18.70
2023-04-25T01:07:35.994Z,18.70
2023-04-25T01:10:04.945Z,18.70
2023-04-25T01:12:33.104Z,18.70
2023-04-25T01:15:01.219Z,18.70
2023-04-25T01:17:30.221Z,18.70
2023-04-25T01:19:58.547Z,18.70
2023-04-25T01:22:28.076Z,18.70
2023-04-25T01:24:56.388Z,18.60
2023-04-25T01:27:24.863Z,18.60
2023-04-25T01:29:54.061Z,18.60
2023-04-25T01:32:22.863Z,18.60
2023-04-25T01:34:51.147Z,18.60
2023-04-25T01:37:19.753Z,18.60
2023-04-25T01:39:49.787Z,18.60
2023-04-25T01:42:17.830Z,18.70
2023-04-25T01:44:45.948Z,18.70
2023-04-25T01:47:14.107Z,18.50
2023-04-25T01:49:42.211Z,18.50
2023-04-25T01:52:10.365Z,18.50
2023-04-25T01:54:38.536Z,18.50
2023-04-25T01:57:08.013Z,18.50
2023-04-25T01:59:36.172Z,18.50
2023-04-25T02:02:05.150Z,18.50
2023-04-25T02:04:33.561Z,18.50
2023-04-25T02:07:01.820Z,18.50
2023-04-25T02:09:29.906Z,18.50
2023-04-25T02:11:58.023Z,18.50
2023-04-25T02:14:27.861Z,18.50
2023-04-25T02:16:56.093Z,18.50
2023-04-25T02:19:24.341Z,18.40
2023-04-25T02:21:52.459Z,18.40
2023-04-25T02:24:20.635Z,18.40
2023-04-25T02:26:50.328Z,18.40
2023-04-25T02:29:18.631Z,18.40
2023-04-25T02:31:48.219Z,18.40
2023-04-25T02:34:16.589Z,18.40
2023-04-25T02:36:44.718Z,18.30
2023-04-25T02:39:12.860Z,18.30
2023-04-25T02:41:40.981Z,18.30
2023-04-25T02:44:09.080Z,18.30
2023-04-25T02:46:39.454Z,18.30
2023-04-25T02:49:09.415Z,18.30
2023-04-25T02:51:37.761Z,18.30
2023-04-25T02:54:07.549Z,18.30
2023-04-25T02:56:35.710Z,18.30
2023-04-25T02:59:03.956Z,18.30
2023-04-25T03:01:32.100Z,18.20
2023-04-25T03:04:00.250Z,18.30
2023-04-25T03:06:29.822Z,18.30
2023-04-25T03:08:57.914Z,18.20
2023-04-25T03:11:27.909Z,18.30
2023-04-25T03:13:55.802Z,18.20
2023-04-25T03:16:24.390Z,18.20
2023-04-25T03:18:52.526Z,18.20
2023-04-25T03:21:20.744Z,18.20
2023-04-25T03:23:50.382Z,18.20
2023-04-25T03:26:18.655Z,18.20
2023-04-25T03:28:46.746Z,18.20
2023-04-25T03:31:14.877Z,18.20
2023-04-25T03:33:42.988Z,18.20
2023-04-25T03:36:11.706Z,18.10
2023-04-25T03:38:39.982Z,18.10
2023-04-25T03:41:09.920Z,18.20
2023-04-25T03:43:38.058Z,18.20
2023-04-25T03:46:06.376Z,18.10
2023-04-25T03:48:34.509Z,18.10
2023-04-25T03:51:03.858Z,18.10
2023-04-25T03:53:31.972Z,18.10
2023-04-25T03:56:00.146Z,18.10
2023-04-25T03:58:29.615Z,18.10
2023-04-25T04:00:57.731Z,18.10
2023-04-25T04:03:26.258Z,18.10
2023-04-25T04:05:54.539Z,18.00
2023-04-25T04:08:22.643Z,18.00
2023-04-25T04:10:50.762Z,18.00
2023-04-25T04:13:18.893Z,18.00
2023-04-25T04:15:48.453Z,18.00
2023-04-25T04:18:16.620Z,18.00
2023-04-25T04:20:44.728Z,18.00
2023-04-25T04:23:14.180Z,18.00
2023-04-25T04:25:42.897Z,18.00
2023-04-25T04:28:12.101Z,18.00
2023-04-25T04:30:40.321Z,18.00
2023-04-25T04:33:10.035Z,18.00
2023-04-25T04:35:38.205Z,18.00
2023-04-25T04:38:06.336Z,17.90
2023-04-25T04:40:34.672Z,18.00
2023-04-25T04:43:03.138Z,18.00
2023-04-25T04:45:31.265Z,17.90
2023-04-25T04:47:59.452Z,18.00
2023-04-25T04:50:29.338Z,17.90
2023-04-25T04:52:57.474Z,17.90
2023-04-25T04:55:25.784Z,18.00
2023-04-25T04:57:53.867Z,18.00
2023-04-25T05:00:22.933Z,18.00
2023-04-25T05:02:51.106Z,18.00
2023-04-25T05:05:19.432Z,18.00
2023-04-25T05:07:48.893Z,18.00
2023-04-25T05:10:17.042Z,18.10
2023-04-25T05:12:45.356Z,18.20
2023-04-25T05:15:13.910Z,18.10
2023-04-25T05:17:42.051Z,18.10
2023-04-25T05:20:11.009Z,18.20
2023-04-25T05:22:39.122Z,18.20
2023-04-25T05:25:09.522Z,18.30
2023-04-25T05:27:37.805Z,18.30
2023-04-25T05:30:07.281Z,18.30
2023-04-25T05:32:35.589Z,18.40
2023-04-25T05:35:03.946Z,18.50
2023-04-25T05:37:33.826Z,18.50
2023-04-25T05:40:02.086Z,18.50
2023-04-25T05:42:31.545Z,18.50
2023-04-25T05:44:59.676Z,18.40
2023-04-25T05:47:27.815Z,18.40
2023-04-25T05:49:56.114Z,18.40
2023-04-25T05:52:24.225Z,18.40
2023-04-25T05:54:52.375Z,18.50
2023-04-25T05:57:25.311Z,18.50
2023-04-25T05:59:55.332Z,18.50
2023-04-25T06:02:23.575Z,18.50
2023-04-25T06:04:52.856Z,18.60
2023-04-25T06:07:21.942Z,18.60
2023-04-25T06:09:50.269Z,18.70
2023-04-25T06:12:18.384Z,18.70
2023-04-25T06:14:46.509Z,18.80
2023-04-25T06:17:16.067Z,18.80
2023-04-25T06:19:44.198Z,19.00
2023-04-25T06:22:12.734Z,19.00
2023-04-25T06:24:40.850Z,19.10
2023-04-25T06:27:08.971Z,19.20
2023-04-25T06:29:37.121Z,19.20
2023-04-25T06:32:05.506Z,19.30
2023-04-25T06:34:35.014Z,19.40
2023-04-25T06:37:03.452Z,19.40
2023-04-25T06:39:31.716Z,19.40
2023-04-25T06:41:59.828Z,19.30
2023-04-25T06:44:30.397Z,19.20
2023-04-25T06:46:58.587Z,19.10
2023-04-25T06:49:26.861Z,19.00
2023-04-25T06:51:56.332Z,18.90
2023-04-25T06:54:25.904Z,19.10
2023-04-25T06:56:54.031Z,19.20
2023-04-25T06:59:22.140Z,19.50
2023-04-25T07:01:50.501Z,19.50
2023-04-25T07:04:18.894Z,19.40
2023-04-25T07:06:48.537Z,19.30
2023-04-25T07:09:18.057Z,19.20
2023-04-25T07:11:46.156Z,19.20
2023-04-25T07:14:14.278Z,19.20
2023-04-25T07:16:42.927Z,19.30
2023-04-25T07:19:11.121Z,19.20
2023-04-25T07:21:39.220Z,19.10
2023-04-25T07:24:08.236Z,19.20
2023-04-25T07:26:38.420Z,19.30
2023-04-25T07:29:07.123Z,19.60
2023-04-25T07:31:35.735Z,19.80
2023-04-25T07:34:03.907Z,20.10
2023-04-25T07:36:32.066Z,20.30
2023-04-25T07:39:00.229Z,20.40
2023-04-25T07:41:28.583Z,20.50
2023-04-25T07:43:58.173Z,20.60
2023-04-25T07:46:26.400Z,20.70
2023-04-25T07:48:54.617Z,20.80
2023-04-25T07:51:23.276Z,21.00
2023-04-25T07:53:51.729Z,21.10
2023-04-25T07:56:19.842Z,21.20
2023-04-25T07:58:47.971Z,21.40
2023-04-25T08:01:17.735Z,21.60
2023-04-25T08:03:46.047Z,21.60
2023-04-25T08:06:14.797Z,21.90
2023-04-25T08:08:43.085Z,22.10
2023-04-25T08:11:11.787Z,22.30
2023-04-25T08:13:39.885Z,22.40
2023-04-25T08:16:08.104Z,22.60
2023-04-25T08:18:37.588Z,22.70
2023-04-25T08:21:06.077Z,22.90
2023-04-25T08:23:34.316Z,22.90
2023-04-25T08:26:02.580Z,22.90
2023-04-25T08:28:30.691Z,22.80
2023-04-25T08:30:59.012Z,22.80
2023-04-25T08:33:27.282Z,22.90
2023-04-25T08:35:57.058Z,23.10
2023-04-25T08:38:25.236Z,23.30
2023-04-25T08:40:54.000Z,23.40
2023-04-25T08:43:22.573Z,23.50
2023-04-25T08:45:50.772Z,23.50
2023-04-25T08:48:20.650Z,23.70
2023-04-25T08:50:52.742Z,23.90
2023-04-25T08:53:28.465Z,24.20
2023-04-25T08:55:58.225Z,24.50
2023-04-25T08:58:26.594Z,24.90
2023-04-25T09:00:54.880Z,25.20
2023-04-25T09:03:23.219Z,25.60
2023-04-25T09:05:52.266Z,25.70
2023-04-25T09:08:20.404Z,25.70
2023-04-25T09:10:49.946Z,25.40
2023-04-25T09:13:27.308Z,25.00
2023-04-25T09:15:56.821Z,24.60
2023-04-25T09:18:29.929Z,24.30
2023-04-25T09:21:04.168Z,24.00
2023-04-25T09:23:42.296Z,23.70
2023-04-25T09:26:11.942Z,23.40
2023-04-25T09:28:40.127Z,23.30
2023-04-25T09:31:08.256Z,23.20
2023-04-25T09:33:37.344Z,23.20
2023-04-25T09:36:07.120Z,23.30
2023-04-25T09:38:42.646Z,23.70
2023-04-25T09:41:12.732Z,23.90
2023-04-25T09:43:41.555Z,23.40
2023-04-25T09:46:12.243Z,22.80
2023-04-25T09:48:41.372Z,22.40
2023-04-25T09:51:11.440Z,22.10
2023-04-25T09:53:41.640Z,21.90
2023-04-25T09:56:12.482Z,21.90
2023-04-25T09:58:42.678Z,22.40
2023-04-25T10:01:12.669Z,22.70
2023-04-25T10:03:42.805Z,22.80
2023-04-25T10:06:15.387Z,22.90
2023-04-25T10:08:44.137Z,22.90
2023-04-25T10:11:15.491Z,23.00
2023-04-25T10:13:44.984Z,23.00
2023-04-25T10:16:13.631Z,23.60
2023-04-25T10:18:41.743Z,25.20
2023-04-25T10:21:10.025Z,26.80
2023-04-25T10:23:39.292Z,27.60
2023-04-25T10:26:08.606Z,27.50
2023-04-25T10:28:59.708Z,27.00
2023-04-25T10:31:28.159Z,26.50
2023-04-25T10:33:56.478Z,26.10
2023-04-25T10:36:28.431Z,25.60
2023-04-25T10:38:56.555Z,25.20
2023-04-25T10:41:24.858Z,24.90
2023-04-25T10:44:03.394Z,24.60
2023-04-25T10:46:32.354Z,24.40
2023-04-25T10:49:01.976Z,24.20
2023-04-25T10:54:21.126Z,24.60
2023-04-25T10:56:51.146Z,25.10
2023-04-25T10:59:22.554Z,26.20
2023-04-25T11:01:55.697Z,27.40
2023-04-25T11:04:25.811Z,27.30
2023-04-25T11:09:53.489Z,26.80
2023-04-25T11:12:21.762Z,27.00
2023-04-25T11:14:37.885Z,27.00
2023-04-25T11:14:51.242Z,27.70
2023-04-25T11:17:19.442Z,28.60
2023-04-25T11:19:51.143Z,28.90
2023-04-25T11:22:19.542Z,29.00
2023-04-25T11:24:48.106Z,29.10
2023-04-25T11:27:16.481Z,28.80
2023-04-25T11:29:44.616Z,28.50
2023-04-25T11:32:14.179Z,28.00
2023-04-25T11:34:44.991Z,27.60
2023-04-25T11:37:14.482Z,27.30
2023-04-25T11:39:47.334Z,27.20
2023-04-25T11:42:15.636Z,28.20
2023-04-25T11:44:43.787Z,29.20
2023-04-25T11:47:13.396Z,29.50
2023-04-25T11:49:41.357Z,29.00
2023-04-25T11:52:09.821Z,28.50
2023-04-25T11:54:39.028Z,28.10
2023-04-25T11:57:07.701Z,27.70
2023-04-25T11:59:36.083Z,27.40
2023-04-25T12:02:04.186Z,27.10
2023-04-25T12:04:34.682Z,26.90
2023-04-25T12:07:03.631Z,26.50
2023-04-25T12:09:33.349Z,26.20
2023-04-25T12:12:03.963Z,26.00
2023-04-25T12:14:34.505Z,25.80
2023-04-25T12:17:05.028Z,25.70
2023-04-25T12:19:41.217Z,25.60
2023-04-25T12:22:22.229Z,25.60
2023-04-25T12:24:50.385Z,25.80
2023-04-25T12:27:20.315Z,25.90
2023-04-25T12:29:53.959Z,26.10
2023-04-25T12:32:22.258Z,26.40
2023-04-25T12:34:51.965Z,26.70
2023-04-25T12:37:19.899Z,27.00
2023-04-25T12:39:48.029Z,27.10
2023-04-25T12:42:16.327Z,27.00
2023-04-25T12:44:44.497Z,26.90
2023-04-25T12:47:12.886Z,26.80
2023-04-25T12:49:41.099Z,26.70
2023-04-25T12:52:10.990Z,26.90
2023-04-25T12:54:39.772Z,28.00
2023-04-25T12:57:08.039Z,28.90
2023-04-25T12:59:36.158Z,29.90
2023-04-25T13:02:04.338Z,30.60
2023-04-25T13:04:32.888Z,30.70
2023-04-25T13:07:01.070Z,30.20
2023-04-25T13:09:30.596Z,29.90
2023-04-25T13:11:59.336Z,29.50
2023-04-25T13:14:27.639Z,29.20
2023-04-25T13:16:55.986Z,28.80
2023-04-25T13:19:24.180Z,28.60
2023-04-25T13:21:52.357Z,28.30
2023-04-25T13:24:20.502Z,28.10
2023-04-25T13:26:50.089Z,27.80
2023-04-25T13:29:17.965Z,27.90
2023-04-25T13:31:46.100Z,28.50
2023-04-25T13:34:14.213Z,29.30
2023-04-25T13:36:42.487Z,29.50
2023-04-25T13:39:10.690Z,29.20
2023-04-25T13:41:38.814Z,29.40
2023-04-25T13:44:08.467Z,29.90
2023-04-25T13:49:12.956Z,30.50
2023-04-25T13:51:43.265Z,30.70
2023-04-25T13:54:11.638Z,30.40
2023-04-25T13:56:39.879Z,30.60
2023-04-25T13:59:09.769Z,30.80
2023-04-25T14:01:37.975Z,30.90
2023-04-25T14:04:06.295Z,31.30
2023-04-25T14:06:34.587Z,31.40
2023-04-25T14:09:03.000Z,31.90
2023-04-25T14:11:31.161Z,32.30
2023-04-25T14:13:59.300Z,32.50
2023-04-25T14:16:28.820Z,32.60
2023-04-25T14:18:57.234Z,32.60
2023-04-25T14:21:25.365Z,32.00
2023-04-25T14:23:54.054Z,30.80
2023-04-25T14:26:22.560Z,30.20
2023-04-25T14:28:50.681Z,31.30
2023-04-25T14:31:18.839Z,32.50
2023-04-25T14:33:48.461Z,33.30
2023-04-25T14:36:16.755Z,33.10
2023-04-25T14:38:44.867Z,32.20
2023-04-25T14:41:12.993Z,31.20
2023-04-25T14:43:42.323Z,30.00
2023-04-25T14:46:12.006Z,29.80
2023-04-25T14:48:41.035Z,29.70
2023-04-25T14:51:10.624Z,29.50
2023-04-25T14:53:38.678Z,29.20
2023-04-25T14:56:08.168Z,28.90
2023-04-25T14:58:36.135Z,28.70
2023-04-25T15:01:04.482Z,28.60
2023-04-25T15:03:33.152Z,28.60
2023-04-25T15:06:02.136Z,29.00
2023-04-25T15:08:31.643Z,30.40
2023-04-25T15:10:59.594Z,31.90
2023-04-25T15:13:28.826Z,32.90
2023-04-25T15:15:56.972Z,33.70
2023-04-25T15:18:25.899Z,34.30
2023-04-25T15:20:55.204Z,33.90
2023-04-25T15:23:23.617Z,33.00
2023-04-25T15:25:54.508Z,31.70
2023-04-25T15:28:22.892Z,31.00
2023-04-25T15:30:51.506Z,30.80
2023-04-25T15:33:19.614Z,29.90
2023-04-25T15:35:47.784Z,30.00
2023-04-25T15:38:15.934Z,30.10
2023-04-25T15:40:44.133Z,30.20
2023-04-25T15:43:16.217Z,30.10
2023-04-25T15:45:45.629Z,29.90
2023-04-25T15:48:13.995Z,29.70
2023-04-25T15:50:43.216Z,29.50
2023-04-25T15:53:11.671Z,29.20
2023-04-25T15:55:39.793Z,29.00
2023-04-25T15:58:09.410Z,28.80
2023-04-25T16:00:40.501Z,28.70
2023-04-25T16:03:09.555Z,28.50
2023-04-25T16:05:38.288Z,28.30
2023-04-25T16:08:06.561Z,28.00
2023-04-25T16:10:34.925Z,27.80
2023-04-25T16:13:03.881Z,27.60
2023-04-25T16:15:34.620Z,27.40
2023-04-25T16:18:05.249Z,27.30
2023-04-25T16:20:33.659Z,27.50
2023-04-25T16:23:01.772Z,27.80
2023-04-25T16:25:29.904Z,28.20
2023-04-25T16:27:58.077Z,28.40
2023-04-25T16:30:26.391Z,28.50
2023-04-25T16:32:57.098Z,28.60
2023-04-25T16:35:30.507Z,28.70
2023-04-25T16:37:58.699Z,28.70
2023-04-25T16:40:27.048Z,28.70
2023-04-25T16:42:55.182Z,28.80
2023-04-25T16:45:24.420Z,28.60
2023-04-25T16:47:52.576Z,28.60
2023-04-25T16:50:21.317Z,28.60
2023-04-25T16:52:51.690Z,28.70
2023-04-25T16:55:19.913Z,28.70
2023-04-25T16:57:48.120Z,28.60
2023-04-25T17:00:18.269Z,28.50
2023-04-25T17:02:47.375Z,28.50
2023-04-25T17:05:15.706Z,28.40
2023-04-25T17:07:43.864Z,28.30
2023-04-25T17:10:13.541Z,28.00
2023-04-25T17:12:41.695Z,27.70
2023-04-25T17:15:11.188Z,27.60
2023-04-25T17:17:39.137Z,27.50
2023-04-25T17:20:09.957Z,27.40
2023-04-25T17:22:38.649Z,27.20
2023-04-25T17:25:09.082Z,27.10
2023-04-25T17:27:38.764Z,26.90
2023-04-25T17:30:08.663Z,26.80
2023-04-25T17:32:36.845Z,26.10
2023-04-25T17:35:05.715Z,25.50
2023-04-25T17:37:33.921Z,25.20
2023-04-25T17:40:02.036Z,25.20
2023-04-25T17:42:30.549Z,25.20
2023-04-25T17:45:00.047Z,25.20
2023-04-25T17:47:28.415Z,25.10
2023-04-25T17:49:57.613Z,25.20
2023-04-25T17:52:26.441Z,25.10
2023-04-25T17:54:54.561Z,25.20
2023-04-25T17:57:24.314Z,25.10
2023-04-25T17:59:52.651Z,25.10
2023-04-25T18:02:22.519Z,25.00
2023-04-25T18:04:50.902Z,24.90
2023-04-25T18:07:19.108Z,24.90
2023-04-25T18:09:47.240Z,24.70
2023-04-25T18:12:18.034Z,24.70
2023-04-25T18:14:46.200Z,24.60
2023-04-25T18:17:15.055Z,24.50
2023-04-25T18:19:44.560Z,24.40
2023-04-25T18:22:12.987Z,24.30
2023-04-25T18:24:41.118Z,24.20
2023-04-25T18:27:09.248Z,24.10
2023-04-25T18:29:38.256Z,24.00
2023-04-25T18:32:07.042Z,23.90
2023-04-25T18:34:35.270Z,23.70
2023-04-25T18:37:04.795Z,23.60
2023-04-25T18:39:33.022Z,23.60
2023-04-25T18:42:06.452Z,23.50
2023-04-25T18:44:39.454Z,23.50
2023-04-25T18:47:07.828Z,23.40
2023-04-25T18:49:36.112Z,23.30
2023-04-25T18:52:05.735Z,23.30
2023-04-25T18:54:33.859Z,23.20
2023-04-25T18:57:01.972Z,23.20
2023-04-25T18:59:30.104Z,23.20
2023-04-25T19:01:58.337Z,23.20
2023-04-25T19:04:26.586Z,23.10
2023-04-25T19:06:54.824Z,23.10
2023-04-25T19:09:24.919Z,23.00
2023-04-25T19:11:53.159Z,23.00
2023-04-25T19:14:21.273Z,22.80
2023-04-25T19:19:17.868Z,23.00
2023-04-25T19:21:46.002Z,23.00
2023-04-25T19:26:44.113Z,22.90
2023-04-25T19:29:14.543Z,22.90
2023-04-25T19:34:13.022Z,22.80
2023-04-25T19:36:42.443Z,22.80
2023-04-25T19:39:10.955Z,22.70
2023-04-25T19:41:40.411Z,22.60
2023-04-25T19:44:10.957Z,22.50
2023-04-25T19:46:40.060Z,22.50
2023-04-25T19:49:08.351Z,22.40
2023-04-25T19:51:37.242Z,22.40
2023-04-25T19:54:05.899Z,22.30
2023-04-25T19:56:34.178Z,22.30
2023-04-25T19:59:02.417Z,22.20
2023-04-25T20:01:31.996Z,22.20
2023-04-25T20:04:00.183Z,22.10
2023-04-25T20:06:29.085Z,22.10
2023-04-25T20:08:57.460Z,22.10
2023-04-25T20:11:28.618Z,22.00
2023-04-25T20:13:57.448Z,22.00
2023-04-25T20:16:25.727Z,21.90
2023-04-25T20:18:55.503Z,21.90
2023-04-25T20:21:23.877Z,21.90
2023-04-25T20:23:52.089Z,21.90
2023-04-25T20:26:22.548Z,21.80
2023-04-25T20:28:51.371Z,21.80
2023-04-25T20:31:19.999Z,22.00
2023-04-25T20:33:48.866Z,21.70
2023-04-25T20:36:19.676Z,21.90
2023-04-25T20:38:48.065Z,21.90
2023-04-25T20:41:16.213Z,21.70
2023-04-25T20:43:44.513Z,21.70
2023-04-25T20:48:42.056Z,21.60
2023-04-25T20:51:10.359Z,21.60
2023-04-25T20:53:39.869Z,21.60
2023-04-25T20:56:07.991Z,21.50
2023-04-25T21:01:06.432Z,21.50
2023-04-25T21:03:35.670Z,21.50
2023-04-25T21:06:03.892Z,21.40
2023-04-25T21:08:32.107Z,21.40
2023-04-25T21:11:01.790Z,21.30
2023-04-25T21:13:29.927Z,21.30
2023-04-25T21:15:58.518Z,21.30
2023-04-25T21:18:27.746Z,21.20
2023-04-25T21:20:55.856Z,21.20
2023-04-25T21:23:24.217Z,21.10
2023-04-25T21:25:54.045Z,21.10
2023-04-25T21:28:23.785Z,21.10
2023-04-25T21:30:52.582Z,21.00
2023-04-25T21:33:20.862Z,21.10
2023-04-25T21:35:49.004Z,21.00
2023-04-25T21:38:17.309Z,21.00
2023-04-25T21:40:45.901Z,20.90
2023-04-25T21:43:14.158Z,20.90
2023-04-25T21:46:09.136Z,20.80
2023-04-25T21:48:31.823Z,20.80
2023-04-25T21:51:00.207Z,20.80
2023-04-25T21:53:28.329Z,20.70
2023-04-25T21:55:56.417Z,20.70
2023-04-25T21:58:24.857Z,20.70
2023-04-25T22:00:55.683Z,20.70
2023-04-25T22:03:23.951Z,20.60
2023-04-25T22:05:52.086Z,20.60
2023-04-25T22:08:20.776Z,20.60
2023-04-25T22:10:49.258Z,20.60
2023-04-25T22:13:17.386Z,20.50
2023-04-25T22:15:45.936Z,20.50
2023-04-25T22:18:16.372Z,20.50
2023-04-25T22:20:45.095Z,20.40
2023-04-25T22:23:13.229Z,20.40
2023-04-25T22:25:42.080Z,20.40
2023-04-25T22:28:10.783Z,20.30
2023-04-25T22:30:38.889Z,20.30
2023-04-25T22:33:07.139Z,20.30
2023-04-25T22:35:36.706Z,20.30
2023-04-25T22:38:05.082Z,20.20
2023-04-25T22:40:33.173Z,20.20
2023-04-25T22:43:01.316Z,20.20
2023-04-25T22:45:32.603Z,20.10
2023-04-25T22:48:01.000Z,20.30
2023-04-25T22:50:29.129Z,20.80
2023-04-25T22:52:58.637Z,20.00
2023-04-25T22:55:27.155Z,20.20
2023-04-25T22:57:55.277Z,20.00
2023-04-25T23:00:26.143Z,20.00
2023-04-25T23:02:55.097Z,20.00
2023-04-25T23:05:24.437Z,19.90
2023-04-25T23:07:52.552Z,19.90
2023-04-25T23:10:22.481Z,19.90
2023-04-25T23:12:50.391Z,19.80
2023-04-25T23:15:19.766Z,19.80
2023-04-25T23:17:47.965Z,19.80
2023-04-25T23:20:16.375Z,19.80
2023-04-25T23:22:44.489Z,19.80
2023-04-25T23:25:12.804Z,19.70
2023-04-25T23:27:43.090Z,19.70
2023-04-25T23:30:12.420Z,19.70
2023-04-25T23:32:40.612Z,19.60
2023-04-25T23:35:09.980Z,19.60
2023-04-25T23:37:38.707Z,19.60
2023-04-25T23:40:09.836Z,19.60
2023-04-25T23:42:38.696Z,19.60
2023-04-25T23:45:09.814Z,19.50
2023-04-25T23:47:38.554Z,19.50
2023-04-25T23:50:08.026Z,19.50
2023-04-25T23:52:36.158Z,19.50
2023-04-25T23:55:05.431Z,19.40
2023-04-25T23:57:33.638Z,19.40
